Azamara Quest — 9HOM8 — position and weather

sailwx.info

Track history (hours):
 
Tides and Currents Weather Stations Pressure Air Temp Water Temp Dewpoint Dewpoint Depression Visibility Wind Speed Wind Dir Waves Ship Positions

Azamara Quest

Last reported at 2018-Aug-13 19:00 UTC. Time now 2018-Aug-14 15:20 UTC.
Position N 37°48' E 016°12'.

Length 181 m; draft 5.9 m.

Type: Passenger vessel. MMSI: 256216000.

Wind from 250 at 9 knots

Barometer 1016.0 mb
Air temperature 28.0 ° C
Visibility: greater than 10.8 NM
Dewpoint 28.0 ° C
Water temperature 22.0 ° C

Date/timePositionNaut miles runAvg speedWind from/ knotsBaromVisibWave heightAir tempDewpointWater temp
2018-Aug-13 19:00N 37°48' E 016°12'2120.3 250 / 91016.010.8 28.028.022.0
2018-Aug-13 17:57N 37°50' E 015°45'21 2.0
2018-Aug-13 07:22N 38°09' E 015°35'615.6
2018-Aug-13 07:00N 38°14' E 015°37'511.1
2018-Aug-13 06:30N 38°19' E 015°40'610.0
2018-Aug-13 05:57N 38°25' E 015°38'5413.6
2018-Aug-13 02:00N 39°12' E 015°06'6213.3 1015.010.8 26.024.625.0
2018-Aug-12 21:22N 40°11' E 014°45'1438.5
2018-Aug-12 21:00N 40°24' E 014°36'8107.7 300 / 121016.010.8 27.027.022.0
2018-Aug-12 20:55N 40°18' E 014°42'615.0
2018-Aug-12 20:30N 40°24' E 014°40'815.1
2018-Aug-12 20:00N 40°31' E 014°38'6 0.4
2018-Aug-12 03:59N 40°36' E 014°36'612.6
2018-Aug-12 03:30N 40°33' E 014°29'612.9
2018-Aug-12 03:00N 40°30' E 014°22'712.9
2018-Aug-12 02:29N 40°27' E 014°14'613.2
2018-Aug-12 02:00N 40°27' E 014°05'714.4
2018-Aug-12 01:30N 40°29' E 013°56'714.2
2018-Aug-12 01:00N 40°31' E 013°47'816.1
2018-Aug-12 00:31N 40°33' E 013°37'917.1
2018-Aug-12 00:00N 40°36' E 013°26'917.2
2018-Aug-11 23:30N 40°39' E 013°16'817.3
2018-Aug-11 23:00N 40°42' E 013°05'917.2
2018-Aug-11 22:30N 40°45' E 012°55'917.2
2018-Aug-11 22:00N 40°50' E 012°45'917.5
2018-Aug-11 21:29N 40°56' E 012°36'4793.9
2018-Aug-11 21:00N 41°30' E 011°54'383993.5 300 / 111018.0 25.023.522.0
2018-Aug-11 20:59N 41°03' E 012°29'817.3
2018-Aug-11 20:30N 41°09' E 012°22'917.1
2018-Aug-11 19:59N 41°16' E 012°14'817.1
2018-Aug-11 19:30N 41°22' E 012°07'917.1
2018-Aug-11 19:00N 41°29' E 012°00'917.0
2018-Aug-11 18:29N 41°36' E 011°53'817.2
2018-Aug-11 18:00N 41°43' E 011°46'816.6
2018-Aug-11 17:30N 41°51' E 011°43'36 2.2
2018-Aug-11 01:00N 42°06' E 011°00'4312.5 360 / 111020.010.8 27.027.026.0
2018-Aug-10 21:36N 42°34' E 010°16'315.9
2018-Aug-10 21:24N 42°36' E 010°13'1816.2
2018-Aug-10 20:18N 42°51' E 010°01'617.3
2018-Aug-10 19:56N 42°57' E 010°02'817.2
2018-Aug-10 19:27N 43°05' E 010°04'817.1
2018-Aug-10 19:00N 43°13' E 010°07'5321.1
2018-Aug-10 19:00N 43°18' E 010°06'4 8.1 290 / 191020.010.8 28.028.022.0
2018-Aug-10 18:30N 43°21' E 010°09'815.4
2018-Aug-10 18:01N 43°29' E 010°12'5 9.5
2018-Aug-10 17:31N 43°32' E 010°16'2 3.0
2018-Aug-10 16:57N 43°33' E 010°18'0 0.0
2018-Aug-10 16:24N 43°33' E 010°18'0 0.0
2018-Aug-10 15:57N 43°33' E 010°18'0 0.0
2018-Aug-10 15:30N 43°33' E 010°18'0 0.0
2018-Aug-10 14:57N 43°33' E 010°18'0 0.0
2018-Aug-10 14:30N 43°33' E 010°18'0 0.0
2018-Aug-10 14:00N 43°33' E 010°18'0 0.0
2018-Aug-10 13:30N 43°33' E 010°18'0 0.0
2018-Aug-10 13:00N 43°33' E 010°18'0 0.0
2018-Aug-10 12:30N 43°33' E 010°18'0 0.0
2018-Aug-10 12:00N 43°33' E 010°18'0 0.0
2018-Aug-10 11:30N 43°33' E 010°18'0 0.0
2018-Aug-10 11:00N 43°33' E 010°18'0 0.0
2018-Aug-10 10:30N 43°33' E 010°18'0 0.0
2018-Aug-10 10:00N 43°33' E 010°18'0 0.0
2018-Aug-10 09:30N 43°33' E 010°18'0 0.0
2018-Aug-10 09:00N 43°33' E 010°18'0 0.0
2018-Aug-10 08:30N 43°33' E 010°18'0 0.0
2018-Aug-10 08:00N 43°33' E 010°18'0 0.0
2018-Aug-10 07:30N 43°33' E 010°18'0 0.0
2018-Aug-10 07:00N 43°33' E 010°18'0 0.0
2018-Aug-10 06:30N 43°33' E 010°18'0 0.0
2018-Aug-10 06:00N 43°33' E 010°18'0 0.0
2018-Aug-10 05:30N 43°33' E 010°18'0 0.0
2018-Aug-10 05:00N 43°33' E 010°18'1 1.8
2018-Aug-10 04:31N 43°32' E 010°17'4 8.3
2018-Aug-10 04:00N 43°30' E 010°13'4 8.1
2018-Aug-10 03:30N 43°29' E 010°07'4 7.8
2018-Aug-10 03:00N 43°30' E 010°02'4 7.8
2018-Aug-10 02:30N 43°32' E 009°57'4 7.7
2018-Aug-10 02:00N 43°33' E 009°52'4269.4
2018-Aug-10 02:00N 43°30' E 009°48'510.0 250 / 71018.010.8 29.027.629.0
2018-Aug-10 01:30N 43°35' E 009°47'4 7.4
2018-Aug-10 01:01N 43°36' E 009°43'4 7.7
2018-Aug-10 00:31N 43°39' E 009°39'4 7.6
2018-Aug-10 00:01N 43°41' E 009°34'4 8.1
2018-Aug-09 23:30N 43°42' E 009°29'4 7.1
2018-Aug-09 23:00N 43°45' E 009°26'4 7.6
2018-Aug-09 22:31N 43°49' E 009°27'4 7.9
2018-Aug-09 22:00N 43°50' E 009°32'4 7.4
2018-Aug-09 21:30N 43°52' E 009°36'4 7.4
2018-Aug-09 21:00N 43°54' E 009°41'165.1
2018-Aug-09 21:00N 43°54' E 009°42'3 6.0 290 / 61017.027.0 27.027.022.0
2018-Aug-09 20:30N 43°56' E 009°45'4 7.2
2018-Aug-09 20:01N 43°59' E 009°48'4 8.9
2018-Aug-09 19:30N 44°02' E 009°52'1 2.5
2018-Aug-09 19:00N 44°03' E 009°51'0 0.0
2018-Aug-09 18:30N 44°03' E 009°51'0 0.0
2018-Aug-09 18:00N 44°03' E 009°51'0 0.0
2018-Aug-09 17:30N 44°03' E 009°51'0 0.0
2018-Aug-09 17:00N 44°03' E 009°51'0 0.0
2018-Aug-09 16:30N 44°03' E 009°51'0 0.0
2018-Aug-09 16:00N 44°03' E 009°51'0 0.0
2018-Aug-09 15:30N 44°03' E 009°51'0 0.0
2018-Aug-09 15:00N 44°03' E 009°51'0 0.0
2018-Aug-09 14:30N 44°03' E 009°51'0 0.0
2018-Aug-09 14:00N 44°03' E 009°51'0 0.0
2018-Aug-09 13:30N 44°03' E 009°51'0 0.0
2018-Aug-09 13:00N 44°03' E 009°51'0 0.0
2018-Aug-09 12:30N 44°03' E 009°51'0 0.0
2018-Aug-09 12:00N 44°03' E 009°51'0 0.1
2018-Aug-09 11:30N 44°03' E 009°51'0 0.1
2018-Aug-09 11:00N 44°03' E 009°51'0 0.0
2018-Aug-09 10:30N 44°03' E 009°51'0 0.0
2018-Aug-09 10:00N 44°03' E 009°51'0 0.0
2018-Aug-09 09:30N 44°03' E 009°51'0 0.1
2018-Aug-09 09:00N 44°03' E 009°51'0 0.1
2018-Aug-09 08:30N 44°03' E 009°51'0 0.0
2018-Aug-09 08:00N 44°03' E 009°51'0 0.0
2018-Aug-09 07:30N 44°03' E 009°51'0 0.0
2018-Aug-09 07:00N 44°03' E 009°51'0 0.0
2018-Aug-09 06:30N 44°03' E 009°51'1 1.1
2018-Aug-09 06:00N 44°03' E 009°52'4 9.0
2018-Aug-09 05:31N 43°59' E 009°54'612.6
2018-Aug-09 05:00N 43°57' E 009°46'613.0
2018-Aug-09 04:30N 43°57' E 009°37'713.0
2018-Aug-09 04:00N 43°56' E 009°28'612.9
2018-Aug-09 03:31N 43°55' E 009°19'612.8
2018-Aug-09 03:00N 43°54' E 009°10'612.9
2018-Aug-09 02:30N 43°53' E 009°01'612.9
2018-Aug-09 02:01N 43°52' E 008°52'713.2
2018-Aug-09 01:30N 43°51' E 008°43'713.5
2018-Aug-09 01:01N 43°50' E 008°34'713.5
2018-Aug-09 00:30N 43°49' E 008°25'5 9.8
2018-Aug-09 00:00N 43°48' E 008°18'3414.1 250 / 51016.010.8 29.026.225.0
2018-Aug-08 21:36N 43°43' E 007°32'113.2
2018-Aug-08 21:30N 43°44' E 007°30'3 6.0
2018-Aug-08 20:59N 43°44' E 007°26'0 0.0
2018-Aug-08 20:29N 43°44' E 007°26'0 0.0
2018-Aug-08 19:59N 43°44' E 007°26'0 0.0
2018-Aug-08 19:29N 43°44' E 007°26'0 0.0
2018-Aug-08 18:59N 43°44' E 007°26'0 0.0
2018-Aug-08 18:29N 43°44' E 007°26'0 0.0
2018-Aug-08 17:59N 43°44' E 007°26'0 0.0
2018-Aug-08 17:29N 43°44' E 007°26'0 0.0
2018-Aug-08 16:59N 43°44' E 007°26'0 0.0
2018-Aug-08 16:29N 43°44' E 007°26'0 0.4
2018-Aug-08 16:01N 43°44' E 007°26'0 0.8
2018-Aug-08 15:30N 43°44' E 007°26'0 0.2
2018-Aug-08 15:00N 43°44' E 007°26'0 0.1
2018-Aug-08 14:30N 43°44' E 007°26'0 0.0
2018-Aug-08 14:00N 43°44' E 007°26'12 1.2
2018-Aug-08 03:36N 43°33' E 007°33'1 7.8
2018-Aug-08 03:25N 43°31' E 007°33'11 7.4
2018-Aug-08 01:59N 43°21' E 007°31'7 7.6
2018-Aug-08 01:06N 43°17' E 007°24'656.2
2018-Aug-08 01:00N 43°12' E 007°18'5164.6 250 / 81015.010.8 30.028.727.0
2018-Aug-08 00:58N 43°16' E 007°22'4 7.7
2018-Aug-08 00:29N 43°15' E 007°18'4 7.4
2018-Aug-08 00:00N 43°14' E 007°13'4 7.2
2018-Aug-07 23:30N 43°16' E 007°10'4 7.9
2018-Aug-07 23:00N 43°20' E 007°08'4 7.7
2018-Aug-07 22:27N 43°24' E 007°05'4 7.8
2018-Aug-07 22:00N 43°27' E 007°03'4 7.9
2018-Aug-07 21:30N 43°31' E 007°01'2 2.6
2018-Aug-07 20:51N 43°32' E 007°01'0 0.0
2018-Aug-07 20:21N 43°32' E 007°01'0 0.0
2018-Aug-07 19:51N 43°32' E 007°01'0 0.0
2018-Aug-07 19:24N 43°32' E 007°01'0 0.0
2018-Aug-07 19:00N 43°32' E 007°01'0 0.0
2018-Aug-07 18:24N 43°32' E 007°01'0 0.0
2018-Aug-07 17:54N 43°32' E 007°01'0 0.0
2018-Aug-07 17:24N 43°32' E 007°01'0 0.0
2018-Aug-07 16:57N 43°32' E 007°01'0 0.0
2018-Aug-07 16:27N 43°32' E 007°01'0 0.0
2018-Aug-07 16:00N 43°32' E 007°01'0 0.1
2018-Aug-07 15:30N 43°32' E 007°01'0 0.0
2018-Aug-07 14:57N 43°32' E 007°01'0 0.0
2018-Aug-07 14:27N 43°32' E 007°01'0 0.0
2018-Aug-07 14:00N 43°32' E 007°01'0 0.0
2018-Aug-07 13:30N 43°32' E 007°01'0 0.0
2018-Aug-07 13:00N 43°32' E 007°01'0 0.0
2018-Aug-07 12:30N 43°32' E 007°01'0 0.0
2018-Aug-07 12:00N 43°32' E 007°01'0 0.0
2018-Aug-07 11:30N 43°32' E 007°01'0 0.0
2018-Aug-07 11:00N 43°32' E 007°01'0 0.0
2018-Aug-07 10:30N 43°32' E 007°01'0 0.0
2018-Aug-07 10:00N 43°32' E 007°01'0 0.0
2018-Aug-07 09:30N 43°32' E 007°01'0 0.0
2018-Aug-07 09:00N 43°32' E 007°01'0 0.0
2018-Aug-07 08:30N 43°32' E 007°01'0 0.0
2018-Aug-07 08:00N 43°32' E 007°01'0 0.0
2018-Aug-07 07:30N 43°32' E 007°01'0 0.0
2018-Aug-07 06:51N 43°32' E 007°01'0 0.0
2018-Aug-07 06:21N 43°32' E 007°01'0 0.1
2018-Aug-07 05:57N 43°32' E 007°01'0 0.0
2018-Aug-07 05:27N 43°32' E 007°01'0 0.0
2018-Aug-07 04:54N 43°32' E 007°01'2 5.3
2018-Aug-07 04:30N 43°30' E 007°00'612.6
2018-Aug-07 04:01N 43°24' E 006°58'714.0
2018-Aug-07 03:30N 43°17' E 006°55'815.3
2018-Aug-07 03:00N 43°10' E 006°51'816.2
2018-Aug-07 02:30N 43°03' E 006°46'713.9
2018-Aug-07 02:00N 42°57' E 006°41'713.3
2018-Aug-07 01:30N 42°54' E 006°33'1213.8
2018-Aug-07 00:38N 42°45' E 006°22'214.1
2018-Aug-07 00:30N 42°44' E 006°20'714.3
2018-Aug-07 00:00N 42°39' E 006°13'7919.6
2018-Aug-06 20:00N 41°42' E 005°00'11415.6 200 / 41015.027.0 27.027.023.0
2018-Aug-06 12:42N 40°27' E 003°06'417.2
2018-Aug-06 12:30N 40°25' E 003°03'2517.0
2018-Aug-06 11:02N 40°09' E 002°38'216.9
2018-Aug-06 10:56N 40°08' E 002°36'8116.2
2018-Aug-06 05:56N 38°60' E 001°39'716.7
2018-Aug-06 05:29N 38°55' E 001°31'4 0.2
2018-Aug-05 06:10N 38°55' E 001°26'0 0.5
2018-Aug-05 05:56N 38°55' E 001°27'2 3.7
2018-Aug-05 05:27N 38°54' E 001°29'2 3.9
2018-Aug-05 05:00N 38°54' E 001°31'2 3.4
2018-Aug-05 04:30N 38°55' E 001°33'3 7.1
2018-Aug-05 04:01N 38°57' E 001°37'5 7.4
2018-Aug-05 03:16N 39°01' E 001°41'5812.5
2018-Aug-04 22:39N 39°57' E 001°57'214.3
2018-Aug-04 22:30N 39°59' E 001°57'1714.3
2018-Aug-04 21:18N 40°16' E 002°01'413.9
2018-Aug-04 21:00N 40°20' E 002°02'713.5
2018-Aug-04 20:30N 40°27' E 002°04'2141.1
2018-Aug-04 20:00N 40°48' E 002°06'1259.7 260 / 81016.027.0 28.028.024.0
2018-Aug-04 19:48N 40°36' E 002°06'913.2
2018-Aug-04 19:05N 40°46' E 002°09'313.1
2018-Aug-04 18:50N 40°49' E 002°09'413.3
2018-Aug-04 18:30N 40°53' E 002°10'713.5
2018-Aug-04 18:00N 41°00' E 002°12'613.4
2018-Aug-04 17:30N 41°06' E 002°14'713.1
2018-Aug-04 17:00N 41°13' E 002°15'612.9
2018-Aug-04 16:30N 41°19' E 002°13'  
Track history (hours):
 
Tides and Currents Weather Stations Pressure Air Temp Water Temp Dewpoint Dewpoint Depression Visibility Wind Speed Wind Dir Waves Ship Positions

Azamara Quest

Last reported at 2018-Aug-13 19:00 UTC. Time now 2018-Aug-14 15:20 UTC.
Position N 37°48' E 016°12'.

Length 181 m; draft 5.9 m.

Type: Passenger vessel. MMSI: 256216000.

Wind from 250 at 9 knots

Barometer 1016.0 mb
Air temperature 28.0 ° C
Visibility: greater than 10.8 NM
Dewpoint 28.0 ° C
Water temperature 22.0 ° C

Date/timePositionNaut miles runAvg speedWind from/ knotsBaromVisibWave heightAir tempDewpointWater temp
2018-Aug-13 19:00N 37°48' E 016°12'2120.3 250 / 91016.010.8 28.028.022.0
2018-Aug-13 17:57N 37°50' E 015°45'21 2.0
2018-Aug-13 07:22N 38°09' E 015°35'615.6
2018-Aug-13 07:00N 38°14' E 015°37'511.1
2018-Aug-13 06:30N 38°19' E 015°40'610.0
2018-Aug-13 05:57N 38°25' E 015°38'5413.6
2018-Aug-13 02:00N 39°12' E 015°06'6213.3 1015.010.8 26.024.625.0
2018-Aug-12 21:22N 40°11' E 014°45'1438.5
2018-Aug-12 21:00N 40°24' E 014°36'8107.7 300 / 121016.010.8 27.027.022.0
2018-Aug-12 20:55N 40°18' E 014°42'615.0
2018-Aug-12 20:30N 40°24' E 014°40'815.1
2018-Aug-12 20:00N 40°31' E 014°38'6 0.4
2018-Aug-12 03:59N 40°36' E 014°36'612.6
2018-Aug-12 03:30N 40°33' E 014°29'612.9
2018-Aug-12 03:00N 40°30' E 014°22'712.9
2018-Aug-12 02:29N 40°27' E 014°14'613.2
2018-Aug-12 02:00N 40°27' E 014°05'714.4
2018-Aug-12 01:30N 40°29' E 013°56'714.2
2018-Aug-12 01:00N 40°31' E 013°47'816.1
2018-Aug-12 00:31N 40°33' E 013°37'917.1
2018-Aug-12 00:00N 40°36' E 013°26'917.2
2018-Aug-11 23:30N 40°39' E 013°16'817.3
2018-Aug-11 23:00N 40°42' E 013°05'917.2
2018-Aug-11 22:30N 40°45' E 012°55'917.2
2018-Aug-11 22:00N 40°50' E 012°45'917.5
2018-Aug-11 21:29N 40°56' E 012°36'4793.9
2018-Aug-11 21:00N 41°30' E 011°54'383993.5 300 / 111018.0 25.023.522.0
2018-Aug-11 20:59N 41°03' E 012°29'817.3
2018-Aug-11 20:30N 41°09' E 012°22'917.1
2018-Aug-11 19:59N 41°16' E 012°14'817.1
2018-Aug-11 19:30N 41°22' E 012°07'917.1
2018-Aug-11 19:00N 41°29' E 012°00'917.0
2018-Aug-11 18:29N 41°36' E 011°53'817.2
2018-Aug-11 18:00N 41°43' E 011°46'816.6
2018-Aug-11 17:30N 41°51' E 011°43'36 2.2
2018-Aug-11 01:00N 42°06' E 011°00'4312.5 360 / 111020.010.8 27.027.026.0
2018-Aug-10 21:36N 42°34' E 010°16'315.9
2018-Aug-10 21:24N 42°36' E 010°13'1816.2
2018-Aug-10 20:18N 42°51' E 010°01'617.3
2018-Aug-10 19:56N 42°57' E 010°02'817.2
2018-Aug-10 19:27N 43°05' E 010°04'817.1
2018-Aug-10 19:00N 43°13' E 010°07'5321.1
2018-Aug-10 19:00N 43°18' E 010°06'4 8.1 290 / 191020.010.8 28.028.022.0
2018-Aug-10 18:30N 43°21' E 010°09'815.4
2018-Aug-10 18:01N 43°29' E 010°12'5 9.5
2018-Aug-10 17:31N 43°32' E 010°16'2 3.0
2018-Aug-10 16:57N 43°33' E 010°18'0 0.0
2018-Aug-10 16:24N 43°33' E 010°18'0 0.0
2018-Aug-10 15:57N 43°33' E 010°18'0 0.0
2018-Aug-10 15:30N 43°33' E 010°18'0 0.0
2018-Aug-10 14:57N 43°33' E 010°18'0 0.0
2018-Aug-10 14:30N 43°33' E 010°18'0 0.0
2018-Aug-10 14:00N 43°33' E 010°18'0 0.0
2018-Aug-10 13:30N 43°33' E 010°18'0 0.0
2018-Aug-10 13:00N 43°33' E 010°18'0 0.0
2018-Aug-10 12:30N 43°33' E 010°18'0 0.0
2018-Aug-10 12:00N 43°33' E 010°18'0 0.0
2018-Aug-10 11:30N 43°33' E 010°18'0 0.0
2018-Aug-10 11:00N 43°33' E 010°18'0 0.0
2018-Aug-10 10:30N 43°33' E 010°18'0 0.0
2018-Aug-10 10:00N 43°33' E 010°18'0 0.0
2018-Aug-10 09:30N 43°33' E 010°18'0 0.0
2018-Aug-10 09:00N 43°33' E 010°18'0 0.0
2018-Aug-10 08:30N 43°33' E 010°18'0 0.0
2018-Aug-10 08:00N 43°33' E 010°18'0 0.0
2018-Aug-10 07:30N 43°33' E 010°18'0 0.0
2018-Aug-10 07:00N 43°33' E 010°18'0 0.0
2018-Aug-10 06:30N 43°33' E 010°18'0 0.0
2018-Aug-10 06:00N 43°33' E 010°18'0 0.0
2018-Aug-10 05:30N 43°33' E 010°18'0 0.0
2018-Aug-10 05:00N 43°33' E 010°18'1 1.8
2018-Aug-10 04:31N 43°32' E 010°17'4 8.3
2018-Aug-10 04:00N 43°30' E 010°13'4 8.1
2018-Aug-10 03:30N 43°29' E 010°07'4 7.8
2018-Aug-10 03:00N 43°30' E 010°02'4 7.8
2018-Aug-10 02:30N 43°32' E 009°57'4 7.7
2018-Aug-10 02:00N 43°33' E 009°52'4269.4
2018-Aug-10 02:00N 43°30' E 009°48'510.0 250 / 71018.010.8 29.027.629.0
2018-Aug-10 01:30N 43°35' E 009°47'4 7.4
2018-Aug-10 01:01N 43°36' E 009°43'4 7.7
2018-Aug-10 00:31N 43°39' E 009°39'4 7.6
2018-Aug-10 00:01N 43°41' E 009°34'4 8.1
2018-Aug-09 23:30N 43°42' E 009°29'4 7.1
2018-Aug-09 23:00N 43°45' E 009°26'4 7.6
2018-Aug-09 22:31N 43°49' E 009°27'4 7.9
2018-Aug-09 22:00N 43°50' E 009°32'4 7.4
2018-Aug-09 21:30N 43°52' E 009°36'4 7.4
2018-Aug-09 21:00N 43°54' E 009°41'165.1
2018-Aug-09 21:00N 43°54' E 009°42'3 6.0 290 / 61017.027.0 27.027.022.0
2018-Aug-09 20:30N 43°56' E 009°45'4 7.2
2018-Aug-09 20:01N 43°59' E 009°48'4 8.9
2018-Aug-09 19:30N 44°02' E 009°52'1 2.5
2018-Aug-09 19:00N 44°03' E 009°51'0 0.0
2018-Aug-09 18:30N 44°03' E 009°51'0 0.0
2018-Aug-09 18:00N 44°03' E 009°51'0 0.0
2018-Aug-09 17:30N 44°03' E 009°51'0 0.0
2018-Aug-09 17:00N 44°03' E 009°51'0 0.0
2018-Aug-09 16:30N 44°03' E 009°51'0 0.0
2018-Aug-09 16:00N 44°03' E 009°51'0 0.0
2018-Aug-09 15:30N 44°03' E 009°51'0 0.0
2018-Aug-09 15:00N 44°03' E 009°51'0 0.0
2018-Aug-09 14:30N 44°03' E 009°51'0 0.0
2018-Aug-09 14:00N 44°03' E 009°51'0 0.0
2018-Aug-09 13:30N 44°03' E 009°51'0 0.0
2018-Aug-09 13:00N 44°03' E 009°51'0 0.0
2018-Aug-09 12:30N 44°03' E 009°51'0 0.0
2018-Aug-09 12:00N 44°03' E 009°51'0 0.1
2018-Aug-09 11:30N 44°03' E 009°51'0 0.1
2018-Aug-09 11:00N 44°03' E 009°51'0 0.0
2018-Aug-09 10:30N 44°03' E 009°51'0 0.0
2018-Aug-09 10:00N 44°03' E 009°51'0 0.0
2018-Aug-09 09:30N 44°03' E 009°51'0 0.1
2018-Aug-09 09:00N 44°03' E 009°51'0 0.1
2018-Aug-09 08:30N 44°03' E 009°51'0 0.0
2018-Aug-09 08:00N 44°03' E 009°51'0 0.0
2018-Aug-09 07:30N 44°03' E 009°51'0 0.0
2018-Aug-09 07:00N 44°03' E 009°51'0 0.0
2018-Aug-09 06:30N 44°03' E 009°51'1 1.1
2018-Aug-09 06:00N 44°03' E 009°52'4 9.0
2018-Aug-09 05:31N 43°59' E 009°54'612.6
2018-Aug-09 05:00N 43°57' E 009°46'613.0
2018-Aug-09 04:30N 43°57' E 009°37'713.0
2018-Aug-09 04:00N 43°56' E 009°28'612.9
2018-Aug-09 03:31N 43°55' E 009°19'612.8
2018-Aug-09 03:00N 43°54' E 009°10'612.9
2018-Aug-09 02:30N 43°53' E 009°01'612.9
2018-Aug-09 02:01N 43°52' E 008°52'713.2
2018-Aug-09 01:30N 43°51' E 008°43'713.5
2018-Aug-09 01:01N 43°50' E 008°34'713.5
2018-Aug-09 00:30N 43°49' E 008°25'5 9.8
2018-Aug-09 00:00N 43°48' E 008°18'3414.1 250 / 51016.010.8 29.026.225.0
2018-Aug-08 21:36N 43°43' E 007°32'113.2
2018-Aug-08 21:30N 43°44' E 007°30'3 6.0
2018-Aug-08 20:59N 43°44' E 007°26'0 0.0
2018-Aug-08 20:29N 43°44' E 007°26'0 0.0
2018-Aug-08 19:59N 43°44' E 007°26'0 0.0
2018-Aug-08 19:29N 43°44' E 007°26'0 0.0
2018-Aug-08 18:59N 43°44' E 007°26'0 0.0
2018-Aug-08 18:29N 43°44' E 007°26'0 0.0
2018-Aug-08 17:59N 43°44' E 007°26'0 0.0
2018-Aug-08 17:29N 43°44' E 007°26'0 0.0
2018-Aug-08 16:59N 43°44' E 007°26'0 0.0
2018-Aug-08 16:29N 43°44' E 007°26'0 0.4
2018-Aug-08 16:01N 43°44' E 007°26'0 0.8
2018-Aug-08 15:30N 43°44' E 007°26'0 0.2
2018-Aug-08 15:00N 43°44' E 007°26'0 0.1
2018-Aug-08 14:30N 43°44' E 007°26'0 0.0
2018-Aug-08 14:00N 43°44' E 007°26'12 1.2
2018-Aug-08 03:36N 43°33' E 007°33'1 7.8
2018-Aug-08 03:25N 43°31' E 007°33'11 7.4
2018-Aug-08 01:59N 43°21' E 007°31'7 7.6
2018-Aug-08 01:06N 43°17' E 007°24'656.2
2018-Aug-08 01:00N 43°12' E 007°18'5164.6 250 / 81015.010.8 30.028.727.0
2018-Aug-08 00:58N 43°16' E 007°22'4 7.7
2018-Aug-08 00:29N 43°15' E 007°18'4 7.4
2018-Aug-08 00:00N 43°14' E 007°13'4 7.2
2018-Aug-07 23:30N 43°16' E 007°10'4 7.9
2018-Aug-07 23:00N 43°20' E 007°08'4 7.7
2018-Aug-07 22:27N 43°24' E 007°05'4 7.8
2018-Aug-07 22:00N 43°27' E 007°03'4 7.9
2018-Aug-07 21:30N 43°31' E 007°01'2 2.6
2018-Aug-07 20:51N 43°32' E 007°01'0 0.0
2018-Aug-07 20:21N 43°32' E 007°01'0 0.0
2018-Aug-07 19:51N 43°32' E 007°01'0 0.0
2018-Aug-07 19:24N 43°32' E 007°01'0 0.0
2018-Aug-07 19:00N 43°32' E 007°01'0 0.0
2018-Aug-07 18:24N 43°32' E 007°01'0 0.0
2018-Aug-07 17:54N 43°32' E 007°01'0 0.0
2018-Aug-07 17:24N 43°32' E 007°01'0 0.0
2018-Aug-07 16:57N 43°32' E 007°01'0 0.0
2018-Aug-07 16:27N 43°32' E 007°01'0 0.0
2018-Aug-07 16:00N 43°32' E 007°01'0 0.1
2018-Aug-07 15:30N 43°32' E 007°01'0 0.0
2018-Aug-07 14:57N 43°32' E 007°01'0 0.0
2018-Aug-07 14:27N 43°32' E 007°01'0 0.0
2018-Aug-07 14:00N 43°32' E 007°01'0 0.0
2018-Aug-07 13:30N 43°32' E 007°01'0 0.0
2018-Aug-07 13:00N 43°32' E 007°01'0 0.0
2018-Aug-07 12:30N 43°32' E 007°01'0 0.0
2018-Aug-07 12:00N 43°32' E 007°01'0 0.0
2018-Aug-07 11:30N 43°32' E 007°01'0 0.0
2018-Aug-07 11:00N 43°32' E 007°01'0 0.0
2018-Aug-07 10:30N 43°32' E 007°01'0 0.0
2018-Aug-07 10:00N 43°32' E 007°01'0 0.0
2018-Aug-07 09:30N 43°32' E 007°01'0 0.0
2018-Aug-07 09:00N 43°32' E 007°01'0 0.0
2018-Aug-07 08:30N 43°32' E 007°01'0 0.0
2018-Aug-07 08:00N 43°32' E 007°01'0 0.0
2018-Aug-07 07:30N 43°32' E 007°01'0 0.0
2018-Aug-07 06:51N 43°32' E 007°01'0 0.0
2018-Aug-07 06:21N 43°32' E 007°01'0 0.1
2018-Aug-07 05:57N 43°32' E 007°01'0 0.0
2018-Aug-07 05:27N 43°32' E 007°01'0 0.0
2018-Aug-07 04:54N 43°32' E 007°01'2 5.3
2018-Aug-07 04:30N 43°30' E 007°00'612.6
2018-Aug-07 04:01N 43°24' E 006°58'714.0
2018-Aug-07 03:30N 43°17' E 006°55'815.3
2018-Aug-07 03:00N 43°10' E 006°51'816.2
2018-Aug-07 02:30N 43°03' E 006°46'713.9
2018-Aug-07 02:00N 42°57' E 006°41'713.3
2018-Aug-07 01:30N 42°54' E 006°33'1213.8
2018-Aug-07 00:38N 42°45' E 006°22'214.1
2018-Aug-07 00:30N 42°44' E 006°20'714.3
2018-Aug-07 00:00N 42°39' E 006°13'7919.6
2018-Aug-06 20:00N 41°42' E 005°00'11415.6 200 / 41015.027.0 27.027.023.0
2018-Aug-06 12:42N 40°27' E 003°06'417.2
2018-Aug-06 12:30N 40°25' E 003°03'2517.0
2018-Aug-06 11:02N 40°09' E 002°38'216.9
2018-Aug-06 10:56N 40°08' E 002°36'8116.2
2018-Aug-06 05:56N 38°60' E 001°39'716.7
2018-Aug-06 05:29N 38°55' E 001°31'4 0.2
2018-Aug-05 06:10N 38°55' E 001°26'0 0.5
2018-Aug-05 05:56N 38°55' E 001°27'2 3.7
2018-Aug-05 05:27N 38°54' E 001°29'2 3.9
2018-Aug-05 05:00N 38°54' E 001°31'2 3.4
2018-Aug-05 04:30N 38°55' E 001°33'3 7.1
2018-Aug-05 04:01N 38°57' E 001°37'5 7.4
2018-Aug-05 03:16N 39°01' E 001°41'5812.5
2018-Aug-04 22:39N 39°57' E 001°57'214.3
2018-Aug-04 22:30N 39°59' E 001°57'1714.3
2018-Aug-04 21:18N 40°16' E 002°01'413.9
2018-Aug-04 21:00N 40°20' E 002°02'713.5
2018-Aug-04 20:30N 40°27' E 002°04'2141.1
2018-Aug-04 20:00N 40°48' E 002°06'1259.7 260 / 81016.027.0 28.028.024.0
2018-Aug-04 19:48N 40°36' E 002°06'913.2
2018-Aug-04 19:05N 40°46' E 002°09'313.1
2018-Aug-04 18:50N 40°49' E 002°09'413.3
2018-Aug-04 18:30N 40°53' E 002°10'713.5
2018-Aug-04 18:00N 41°00' E 002°12'613.4
2018-Aug-04 17:30N 41°06' E 002°14'713.1
2018-Aug-04 17:00N 41°13' E 002°15'612.9
2018-Aug-04 16:30N 41°19' E 002°13'  

Dump ship's entire track history